Time;durP1;ratioP1;P1;durP2;ratioP2;P2;SDS_P1;SDS_P2;PMS_P1;PMS_P2;Temp;Humidity;BMP_temperature;BMP_pressure;BME280_temperature;BME280_humidity;BME280_pressure;Samples;Min_cycle;Max_cycle;Signal;HPM_P1;HPM_P2
2022/06/20 00:02:01;;;;;;;12.55;6.72;;;24.40;77.50;;;;;;4984730;28;20372;-71
2022/06/20 00:04:28;;;;;;;12.50;7.25;;;24.40;78.00;;;;;;4999907;28;20117;-72
2022/06/20 00:06:53;;;;;;;11.00;6.72;;;24.40;78.70;;;;;;5001364;28;20032;-72
2022/06/20 00:09:19;;;;;;;10.98;7.00;;;24.30;79.10;;;;;;5000965;28;20018;-74
2022/06/20 00:11:48;;;;;;;10.70;6.13;;;24.30;79.70;;;;;;4999863;28;20442;-72
2022/06/20 00:14:20;;;;;;;12.50;7.22;;;24.30;80.20;;;;;;4999133;28;20391;-72
2022/06/20 00:16:46;;;;;;;8.60;6.05;;;24.30;80.80;;;;;;4999473;28;20035;-72
2022/06/20 00:19:13;;;;;;;12.35;6.50;;;24.20;81.40;;;;;;5001449;28;20068;-71
2022/06/20 00:21:40;;;;;;;12.98;7.15;;;24.20;82.10;;;;;;5001263;28;20148;-71
2022/06/20 00:24:06;;;;;;;11.85;7.28;;;24.20;83.00;;;;;;4999277;28;20026;-71
2022/06/20 00:26:33;;;;;;;11.13;7.07;;;24.10;83.80;;;;;;5001568;28;20407;-72
2022/06/20 00:29:01;;;;;;;14.60;7.25;;;24.10;84.70;;;;;;5000586;28;20038;-71
2022/06/20 00:31:27;;;;;;;10.65;6.55;;;24.00;85.50;;;;;;5001144;28;20037;-71
2022/06/20 00:33:53;;;;;;;10.18;6.35;;;24.00;86.30;;;;;;5002632;28;20029;-72
2022/06/20 00:36:19;;;;;;;15.55;7.40;;;23.90;87.10;;;;;;5001178;28;20046;-71
2022/06/20 00:38:46;;;;;;;11.32;7.07;;;23.90;88.10;;;;;;5001973;28;20018;-72
2022/06/20 00:41:19;;;;;;;15.90;6.75;;;23.90;89.00;;;;;;4999104;28;20035;-72
2022/06/20 00:43:48;;;;;;;14.38;7.15;;;23.80;89.60;;;;;;5002651;28;20096;-72
2022/06/20 00:46:32;;;;;;;14.23;7.23;;;23.80;90.10;;;;;;4999326;28;20077;-72
2022/06/20 00:49:24;;;;;;;17.60;7.70;;;23.80;90.40;;;;;;4998057;28;20087;-71
2022/06/20 00:51:59;;;;;;;14.82;7.20;;;23.80;90.80;;;;;;5001117;28;20034;-71
2022/06/20 00:54:41;;;;;;;13.23;7.88;;;23.80;91.10;;;;;;5002173;28;20120;-72
2022/06/20 00:57:12;;;;;;;11.80;6.60;;;23.80;91.40;;;;;;5000369;28;20108;-73
2022/06/20 00:59:48;;;;;;;11.30;6.93;;;23.80;91.50;;;;;;5001208;28;20072;-71
2022/06/20 01:02:23;;;;;;;16.83;6.70;;;23.80;91.50;;;;;;4984031;28;20030;-72
2022/06/20 01:04:55;;;;;;;15.20;7.38;;;23.80;91.50;;;;;;5000508;28;20058;-72
2022/06/20 01:07:35;;;;;;;18.02;7.78;;;23.90;91.30;;;;;;5000036;28;20056;-71
2022/06/20 01:10:03;;;;;;;14.02;7.60;;;24.00;91.60;;;;;;5000209;28;20061;-72
2022/06/20 01:12:33;;;;;;;23.02;10.05;;;23.90;93.40;;;;;;5006468;28;20458;-71
2022/06/20 01:14:58;;;;;;;;;;;23.60;99.90;;;;;;5011344;28;20470;-71
2022/06/20 01:17:32;;;;;;;29.77;11.45;;;23.20;99.90;;;;;;5011550;28;19906;-72
2022/06/20 01:20:22;;;;;;;27.80;11.30;;;22.70;99.90;;;;;;4998946;28;20132;-71
2022/06/20 01:22:59;;;;;;;27.92;12.95;;;22.20;99.90;;;;;;5001583;28;20034;-71
2022/06/20 01:25:57;;;;;;;24.02;12.05;;;21.80;99.90;;;;;;5001199;28;20026;-72
2022/06/20 01:28:34;;;;;;;32.38;13.38;;;21.50;99.90;;;;;;5004862;28;20049;-72
2022/06/20 01:31:00;;;;;;;27.80;12.73;;;21.30;99.90;;;;;;5004454;28;20034;-72
2022/06/20 01:33:27;;;;;;;29.48;14.18;;;21.20;99.90;;;;;;5004608;28;20037;-74
2022/06/20 01:38:40;;;;;;;27.58;13.43;;;21.00;99.90;;;;;;5004249;28;20077;-71
2022/06/20 01:43:52;;;;;;;27.35;13.68;;;20.90;99.90;;;;;;5002443;28;20093;-72
2022/06/20 01:46:18;;;;;;;24.15;12.48;;;20.80;99.90;;;;;;5003902;28;20029;-72
2022/06/20 01:48:51;;;;;;;28.02;12.25;;;20.70;99.90;;;;;;5002848;28;20026;-71
2022/06/20 01:51:22;;;;;;;21.83;11.38;;;20.70;99.90;;;;;;5001624;28;20026;-71
2022/06/20 01:53:50;;;;;;;22.92;10.55;;;20.60;99.90;;;;;;5004278;28;20021;-72
2022/06/20 01:56:18;;;;;;;20.52;11.50;;;20.50;99.90;;;;;;5003413;28;20077;-73
2022/06/20 01:58:49;;;;;;;24.05;11.27;;;20.50;99.90;;;;;;5011284;28;20018;-73
2022/06/20 02:01:15;;;;;;;23.83;12.00;;;20.40;99.90;;;;;;5009735;28;20117;-71
2022/06/20 02:03:44;;;;;;;18.30;10.98;;;20.40;99.90;;;;;;5014128;28;20597;-73
2022/06/20 02:06:12;;;;;;;23.60;10.77;;;20.30;99.90;;;;;;5014017;28;20470;-71
2022/06/20 02:08:40;;;;;;;23.15;11.65;;;20.20;99.90;;;;;;5014026;28;20034;-72
2022/06/20 02:11:30;;;;;;;18.60;11.02;;;20.30;99.90;;;;;;5005890;28;20053;-71
2022/06/20 02:14:01;;;;;;;17.70;11.52;;;20.30;99.90;;;;;;5002140;28;20061;-70
2022/06/20 02:16:30;;;;;;;22.15;11.25;;;20.20;99.90;;;;;;5005829;28;20108;-71
2022/06/20 02:19:01;;;;;;;17.58;11.60;;;20.30;99.90;;;;;;5002126;28;20110;-71
2022/06/20 02:21:31;;;;;;;16.40;10.73;;;20.30;99.90;;;;;;5001524;28;20728;-71
2022/06/20 02:24:00;;;;;;;;;;;20.30;99.90;;;;;;5004546;28;20064;-71
2022/06/20 02:26:27;;;;;;;24.15;11.02;;;20.30;99.90;;;;;;5001619;28;20267;-71
2022/06/20 02:29:03;;;;;;;27.00;10.43;;;20.30;99.90;;;;;;5008291;28;20057;-71
2022/06/20 02:31:28;;;;;;;18.23;10.13;;;20.30;99.90;;;;;;5017128;28;20426;-70
2022/06/20 02:33:55;;;;;;;16.85;8.82;;;20.30;99.90;;;;;;5002399;28;20093;-72
2022/06/20 02:36:21;;;;;;;16.63;9.48;;;20.20;99.90;;;;;;5021252;28;20029;-71
2022/06/20 02:38:47;;;;;;;20.65;10.00;;;20.30;99.90;;;;;;5015048;28;20029;-72
2022/06/20 02:41:19;;;;;;;25.40;10.82;;;20.30;99.90;;;;;;5017816;28;20043;-71
2022/06/20 02:43:53;;;;;;;20.70;10.00;;;20.10;99.90;;;;;;5022210;28;20427;-71
2022/06/20 02:46:24;;;;;;;16.65;9.68;;;20.10;99.90;;;;;;5019895;28;20029;-71
2022/06/20 02:48:52;;;;;;;17.38;9.32;;;20.00;99.90;;;;;;5023112;28;20021;-71
2022/06/20 02:51:35;;;;;;;17.35;9.40;;;20.00;99.90;;;;;;5019101;28;20037;-72
2022/06/20 02:54:03;;;;;;;25.80;11.20;;;20.00;99.90;;;;;;5021445;28;20030;-72
2022/06/20 02:56:37;;;;;;;25.85;12.07;;;19.80;99.90;;;;;;5020521;28;20458;-72
2022/06/20 02:59:11;;;;;;;27.13;12.90;;;19.80;99.90;;;;;;5012609;28;20033;-72
2022/06/20 03:01:43;;;;;;;24.95;11.43;;;19.70;99.90;;;;;;5017333;28;20041;-72
2022/06/20 03:04:09;;;;;;;24.40;12.10;;;19.50;99.90;;;;;;5022367;28;20034;-72
2022/06/20 03:06:42;;;;;;;23.35;11.75;;;19.40;99.90;;;;;;5021066;28;20022;-72
2022/06/20 03:09:12;;;;;;;24.00;11.27;;;19.30;99.90;;;;;;5019966;28;20040;-73
2022/06/20 03:11:39;;;;;;;22.08;12.10;;;19.20;99.90;;;;;;5022098;28;20026;-73
2022/06/20 03:14:10;;;;;;;25.42;10.60;;;19.30;99.90;;;;;;5021187;28;20062;-74
2022/06/20 03:16:39;;;;;;;21.27;12.15;;;19.20;99.90;;;;;;5018586;28;20022;-74
2022/06/20 03:19:10;;;;;;;22.75;11.45;;;19.20;99.90;;;;;;5019168;28;20024;-72
2022/06/20 03:21:39;;;;;;;21.65;11.68;;;19.30;99.90;;;;;;5018245;28;20068;-73
2022/06/20 03:24:06;;;;;;;25.05;12.15;;;19.30;99.90;;;;;;5019637;28;20017;-73
2022/06/20 03:26:32;;;;;;;17.85;10.25;;;19.30;99.90;;;;;;5022013;28;20044;-73
2022/06/20 03:28:58;;;;;;;19.95;11.13;;;19.40;99.90;;;;;;5013668;28;20513;-71
2022/06/20 03:31:24;;;;;;;21.90;10.88;;;19.40;99.90;;;;;;5011167;28;20034;-72
2022/06/20 03:33:50;;;;;;;23.25;10.88;;;19.40;99.90;;;;;;5012470;28;20033;-72
2022/06/20 03:36:26;;;;;;;16.75;9.98;;;19.30;99.90;;;;;;5011854;28;20493;-72
2022/06/20 03:38:52;;;;;;;21.67;11.65;;;19.30;99.90;;;;;;5004302;28;20034;-72
2022/06/20 03:41:22;;;;;;;22.02;12.75;;;19.30;99.90;;;;;;4996335;28;20041;-72
2022/06/20 03:43:58;;;;;;;25.77;14.82;;;19.40;99.90;;;;;;5012176;28;20034;-72
2022/06/20 03:46:29;;;;;;;35.63;17.40;;;;;;;;;;4994544;28;20037;-72
2022/06/20 03:48:57;;;;;;;42.53;17.65;;;;;;;;;;5009355;28;20025;-72
2022/06/20 03:51:27;;;;;;;26.80;16.25;;;;;;;;;;5007622;28;20032;-72
2022/06/20 03:54:08;;;;;;;34.65;15.40;;;19.50;99.90;;;;;;5000331;28;20030;-72
2022/06/20 03:56:43;;;;;;;31.00;18.17;;;19.40;99.90;;;;;;5004943;28;20037;-72
2022/06/20 03:59:19;;;;;;;33.47;16.02;;;19.30;99.90;;;;;;5007904;28;20085;-72
2022/06/20 04:02:18;;;;;;;26.77;15.30;;;19.20;99.90;;;;;;5004630;28;20030;-71
2022/06/20 04:05:08;;;;;;;25.08;14.63;;;19.10;99.90;;;;;;5011026;28;20435;-72
2022/06/20 04:07:49;;;;;;;28.20;13.45;;;19.00;99.90;;;;;;5001203;28;20080;-72
2022/06/20 04:13:24;;;;;;;29.88;14.52;;;18.80;99.90;;;;;;5011675;28;20021;-71
2022/06/20 04:15:56;;;;;;;27.10;14.20;;;18.70;99.90;;;;;;5006284;28;20030;-70
2022/06/20 04:18:36;;;;;;;27.77;14.13;;;18.60;99.90;;;;;;4997499;28;20036;-70
2022/06/20 04:21:21;;;;;;;23.63;13.13;;;18.60;99.90;;;;;;5007002;28;20085;-72
2022/06/20 04:24:21;;;;;;;26.95;12.73;;;18.60;99.90;;;;;;4998228;28;20060;-72
2022/06/20 04:27:13;;;;;;;25.08;14.60;;;18.50;99.90;;;;;;4996523;28;20410;-71
2022/06/20 04:30:00;;;;;;;33.05;14.20;;;18.50;99.90;;;;;;4973305;28;20398;-72
2022/06/20 04:32:37;;;;;;;32.03;16.08;;;18.50;99.90;;;;;;4992554;28;20027;-72
2022/06/20 04:35:15;;;;;;;28.08;15.18;;;18.50;99.90;;;;;;4989615;28;20037;-71
2022/06/20 04:38:08;;;;;;;23.85;14.00;;;18.50;99.90;;;;;;4977570;28;20486;-72
2022/06/20 04:40:47;;;;;;;23.02;14.00;;;18.50;99.90;;;;;;4978356;28;20032;-72
2022/06/20 04:43:40;;;;;;;24.70;14.18;;;18.50;99.90;;;;;;4991475;28;20716;-71
2022/06/20 04:46:17;;;;;;;22.17;12.55;;;18.50;99.90;;;;;;4981001;28;20460;-72
2022/06/20 04:48:46;;;;;;;29.35;12.82;;;18.50;99.90;;;;;;4991670;28;20022;-72
2022/06/20 04:51:17;;;;;;;21.55;12.45;;;18.50;99.90;;;;;;4990215;28;20395;-72
2022/06/20 04:53:45;;;;;;;28.88;13.57;;;18.50;99.90;;;;;;4992026;28;20041;-72
2022/06/20 04:56:14;;;;;;;17.77;12.02;;;18.50;99.90;;;;;;4991736;28;20408;-72
2022/06/20 04:58:47;;;;;;;23.30;12.45;;;18.60;99.90;;;;;;4992437;28;20490;-72
2022/06/20 05:01:14;;;;;;;27.73;13.65;;;18.60;99.90;;;;;;4983374;28;20050;-71
2022/06/20 05:03:49;;;;;;;29.65;14.23;;;18.60;99.90;;;;;;5014934;28;20033;-71
2022/06/20 05:06:21;;;;;;;23.95;13.85;;;18.60;99.90;;;;;;5007487;28;20033;-72
2022/06/20 05:08:53;;;;;;;31.77;13.93;;;18.80;99.90;;;;;;4994662;28;20038;-72
2022/06/20 05:11:19;;;;;;;22.65;12.60;;;18.80;99.90;;;;;;4995275;28;20042;-72
2022/06/20 05:13:50;;;;;;;26.65;12.63;;;18.80;99.90;;;;;;4995801;28;20423;-72
2022/06/20 05:16:24;;;;;;;26.42;13.63;;;18.80;99.90;;;;;;4995325;28;20103;-72
2022/06/20 05:18:54;;;;;;;24.85;12.13;;;18.90;99.90;;;;;;4995496;28;20471;-72
2022/06/20 05:21:24;;;;;;;20.05;12.77;;;19.00;99.90;;;;;;4993899;28;20042;-73
2022/06/20 05:23:54;;;;;;;25.63;12.73;;;19.10;99.90;;;;;;4995353;28;20042;-74
2022/06/20 05:26:22;;;;;;;22.80;12.32;;;19.20;99.90;;;;;;4990529;28;20061;-74
2022/06/20 05:28:51;;;;;;;24.83;13.20;;;19.20;99.90;;;;;;5001089;28;20121;-74
2022/06/20 05:31:31;;;;;;;24.55;12.65;;;19.20;99.90;;;;;;5013873;28;20083;-75
2022/06/20 05:34:14;;;;;;;25.42;12.27;;;19.30;99.90;;;;;;5013223;28;20095;-75
2022/06/20 05:36:49;;;;;;;24.60;11.90;;;19.40;99.90;;;;;;5014082;28;20058;-74
2022/06/20 05:39:41;;;;;;;17.50;10.38;;;19.40;99.90;;;;;;5013939;28;20104;-74
2022/06/20 05:42:11;;;;;;;25.30;11.77;;;19.40;99.90;;;;;;5012438;28;20045;-74
2022/06/20 05:44:37;;;;;;;22.10;12.38;;;19.40;99.90;;;;;;5014230;28;20491;-76
2022/06/20 05:47:19;;;;;;;15.80;11.25;;;19.40;99.90;;;;;;5012726;28;20130;-77
2022/06/20 05:50:13;;;;;;;21.20;11.63;;;19.40;99.90;;;;;;5014646;28;20541;-75
2022/06/20 05:52:41;;;;;;;18.42;11.05;;;19.40;99.90;;;;;;4985985;28;20474;-74
2022/06/20 05:55:13;;;;;;;20.65;11.38;;;19.40;99.90;;;;;;5009415;28;20022;-78
2022/06/20 05:57:41;;;;;;;20.50;11.18;;;19.40;99.90;;;;;;5010530;28;20022;-76
2022/06/20 06:00:16;;;;;;;18.35;12.07;;;19.50;99.90;;;;;;5016304;28;20037;-84
2022/06/20 06:02:50;;;;;;;19.42;11.13;;;19.60;99.90;;;;;;5010771;28;20038;-77
2022/06/20 06:05:28;;;;;;;22.52;10.55;;;19.60;99.90;;;;;;5003037;28;20379;-75
2022/06/20 06:08:17;;;;;;;18.65;9.98;;;19.60;99.90;;;;;;5011543;28;20034;-74
2022/06/20 06:10:56;;;;;;;16.47;8.47;;;19.70;99.90;;;;;;5003662;28;20037;-74
2022/06/20 06:13:41;;;;;;;18.05;10.18;;;19.80;99.90;;;;;;5017257;28;20072;-73
2022/06/20 06:19:05;;;;;;;;;;;19.90;99.90;;;;;;5015161;28;20081;-76
2022/06/20 06:21:33;;;;;;;18.17;9.38;;;19.90;99.90;;;;;;5013504;28;20016;-74
2022/06/20 06:23:59;;;;;;;16.13;8.57;;;20.00;99.90;;;;;;5010722;28;20113;-75
2022/06/20 06:26:25;;;;;;;19.80;9.65;;;20.10;99.90;;;;;;5025307;28;20022;-76
2022/06/20 06:28:53;;;;;;;13.50;7.78;;;20.10;99.90;;;;;;5004558;28;20046;-75
2022/06/20 06:31:28;;;;;;;17.67;9.38;;;20.10;99.90;;;;;;5002489;28;20026;-75
2022/06/20 06:34:25;;;;;;;20.65;9.25;;;20.10;99.90;;;;;;5000206;28;20115;-78
2022/06/20 06:36:57;;;;;;;15.30;9.20;;;20.20;99.90;;;;;;4993216;28;20041;-78
2022/06/20 06:39:32;;;;;;;19.70;9.70;;;20.20;99.90;;;;;;4993113;28;20071;-77
2022/06/20 06:42:02;;;;;;;24.75;10.10;;;20.30;99.90;;;;;;4999075;28;20070;-77
2022/06/20 06:44:42;;;;;;;15.25;9.50;;;20.40;99.90;;;;;;4999240;28;20026;-75
2022/06/20 06:47:33;;;;;;;20.92;8.73;;;20.60;99.90;;;;;;4996716;28;20501;-76
2022/06/20 06:50:18;;;;;;;16.73;8.32;;;20.90;99.90;;;;;;4990620;28;20093;-74
2022/06/20 06:53:15;;;;;;;13.98;8.27;;;21.20;99.90;;;;;;4992595;28;20038;-77
2022/06/20 06:55:46;;;;;;;19.58;9.20;;;21.40;99.90;;;;;;4988017;28;20130;-77
2022/06/20 06:58:30;;;;;;;17.63;9.18;;;21.50;99.90;;;;;;4993536;28;20034;-75
2022/06/20 07:01:30;;;;;;;23.60;9.98;;;21.60;99.90;;;;;;4989784;28;20129;-75
2022/06/20 07:04:04;;;;;;;15.80;10.25;;;21.70;99.90;;;;;;4991044;28;20102;-76
2022/06/20 07:06:42;;;;;;;25.05;10.45;;;21.70;99.90;;;;;;4992569;28;20105;-75
2022/06/20 07:09:22;;;;;;;26.52;11.32;;;21.80;99.90;;;;;;4980884;28;20084;-75
2022/06/20 07:12:13;;;;;;;18.38;9.52;;;22.00;99.90;;;;;;4973542;28;20419;-75
2022/06/20 07:14:44;;;;;;;16.85;8.77;;;21.90;99.90;;;;;;4985899;28;20479;-75
2022/06/20 07:17:28;;;;;;;18.52;8.20;;;21.90;99.90;;;;;;4990943;28;20022;-76
2022/06/20 07:19:54;;;;;;;23.08;10.95;;;21.90;99.90;;;;;;4992129;28;20077;-75
2022/06/20 07:22:22;;;;;;;22.33;10.13;;;22.10;99.90;;;;;;4991689;28;20632;-76
2022/06/20 07:24:56;;;;;;;17.88;8.68;;;22.20;99.90;;;;;;4992014;28;20431;-77
2022/06/20 07:27:36;;;;;;;18.67;10.50;;;22.30;99.90;;;;;;4988581;28;20034;-76
2022/06/20 07:30:12;;;;;;;23.67;10.57;;;22.40;99.90;;;;;;4997690;28;20056;-75
2022/06/20 07:32:40;;;;;;;19.55;10.88;;;22.60;99.90;;;;;;5011564;28;20049;-75
2022/06/20 07:35:21;;;;;;;17.10;8.25;;;22.80;99.90;;;;;;5002051;28;20026;-76
2022/06/20 07:37:49;;;;;;;23.88;11.20;;;23.00;99.90;;;;;;5008945;28;20038;-76
2022/06/20 07:40:27;;;;;;;17.55;8.90;;;23.00;99.90;;;;;;5006617;28;20390;-77
2022/06/20 07:43:01;;;;;;;19.50;7.82;;;23.20;99.90;;;;;;5011489;28;20099;-76
2022/06/20 07:45:49;;;;;;;19.65;8.68;;;23.20;99.90;;;;;;4996388;28;20029;-76
2022/06/20 07:48:33;;;;;;;14.73;7.20;;;23.40;99.90;;;;;;5001254;28;20034;-75
2022/06/20 07:51:13;;;;;;;15.60;7.97;;;23.40;99.90;;;;;;5004186;28;20034;-75
2022/06/20 07:53:43;;;;;;;18.65;7.47;;;23.50;99.90;;;;;;5010094;28;20026;-75
2022/06/20 07:56:24;;;;;;;15.35;7.00;;;23.80;99.90;;;;;;5005184;28;20586;-75
2022/06/20 07:58:58;;;;;;;17.90;7.10;;;24.00;99.90;;;;;;5009698;28;20022;-76
2022/06/20 08:01:45;;;;;;;16.85;7.03;;;24.20;99.90;;;;;;5009560;28;20522;-76
2022/06/20 08:04:11;;;;;;;15.30;7.05;;;24.20;99.90;;;;;;5010633;28;20030;-76
2022/06/20 08:06:42;;;;;;;15.95;6.30;;;24.30;99.90;;;;;;5011376;28;20104;-75
2022/06/20 08:09:24;;;;;;;18.60;7.40;;;24.40;99.90;;;;;;5010258;28;20396;-73
2022/06/20 08:12:09;;;;;;;13.00;6.72;;;24.70;99.90;;;;;;5011194;28;20038;-75
2022/06/20 08:14:56;;;;;;;21.42;6.72;;;24.90;99.90;;;;;;5011038;28;20021;-75
2022/06/20 08:17:23;;;;;;;27.08;7.35;;;25.10;99.90;;;;;;5007637;28;20574;-75
2022/06/20 08:19:50;;;;;;;15.63;7.40;;;25.40;99.90;;;;;;5002906;28;20088;-75
2022/06/20 08:22:23;;;;;;;13.80;7.60;;;25.50;99.90;;;;;;5009552;28;20045;-75
2022/06/20 08:24:57;;;;;;;15.85;6.78;;;25.40;99.90;;;;;;5003278;28;20027;-75
2022/06/20 08:28:03;;;;;;;12.48;5.90;;;25.40;99.90;;;;;;5013591;28;20506;-75
2022/06/20 08:30:41;;;;;;;12.50;5.68;;;25.40;99.90;;;;;;5010024;28;20039;-75
2022/06/20 08:33:07;;;;;;;14.15;5.60;;;25.40;99.90;;;;;;5007007;28;20104;-75
2022/06/20 08:35:52;;;;;;;14.32;5.53;;;25.60;99.90;;;;;;5015424;28;20125;-75
2022/06/20 08:38:20;;;;;;;10.80;5.10;;;25.80;99.90;;;;;;5000765;28;20030;-75
2022/06/20 08:41:09;;;;;;;9.80;5.00;;;25.90;99.90;;;;;;5006063;28;20037;-75
2022/06/20 08:43:56;;;;;;;14.48;6.03;;;26.10;99.90;;;;;;4996106;28;20034;-74
2022/06/20 08:46:56;;;;;;;17.02;6.28;;;26.30;99.90;;;;;;5008359;28;20026;-75
2022/06/20 08:49:48;;;;;;;13.32;6.18;;;26.30;98.80;;;;;;5005234;28;20022;-74
2022/06/20 08:52:38;;;;;;;15.10;5.60;;;26.30;99.00;;;;;;4988818;28;20073;-76
2022/06/20 08:55:25;;;;;;;12.30;6.50;;;26.20;99.00;;;;;;5009715;28;20034;-74
2022/06/20 08:58:02;;;;;;;10.93;5.43;;;26.20;99.00;;;;;;5011090;28;20498;-74
2022/06/20 09:00:43;;;;;;;15.57;7.10;;;26.30;98.70;;;;;;5010615;28;20036;-76
2022/06/20 09:03:23;;;;;;;15.07;6.57;;;26.40;98.80;;;;;;5009398;28;20033;-75
2022/06/20 09:06:16;;;;;;;12.65;5.82;;;26.40;97.70;;;;;;5010894;28;20030;-76
2022/06/20 09:09:04;;;;;;;19.00;6.03;;;26.50;97.80;;;;;;5010584;28;20467;-75
2022/06/20 09:11:53;;;;;;;14.73;5.78;;;26.60;98.20;;;;;;4964308;28;20048;-75
2022/06/20 09:14:40;;;;;;;15.25;6.05;;;26.80;97.60;;;;;;5009671;28;20117;-76
2022/06/20 09:17:54;;;;;;;13.07;5.82;;;27.00;97.80;;;;;;5002617;28;20038;-75
2022/06/20 09:20:29;;;;;;;15.43;6.13;;;27.20;97.20;;;;;;4985761;28;20135;-75
2022/06/20 09:23:21;;;;;;;11.93;5.53;;;27.40;96.20;;;;;;4994051;28;20046;-75
2022/06/20 09:25:59;;;;;;;11.60;4.90;;;27.60;95.70;;;;;;4998191;28;20046;-75
2022/06/20 09:29:00;;;;;;;15.18;6.03;;;27.60;96.10;;;;;;5009055;28;20073;-76
2022/06/20 09:31:45;;;;;;;14.68;5.80;;;27.80;94.90;;;;;;4957676;28;20049;-74
2022/06/20 09:34:42;;;;;;;14.35;5.70;;;27.90;95.10;;;;;;5002591;28;20034;-74
2022/06/20 09:37:29;;;;;;;15.15;5.32;;;28.00;94.10;;;;;;5004235;28;20029;-76
2022/06/20 09:39:54;;;;;;;16.05;6.28;;;28.20;93.60;;;;;;5009250;28;20037;-76
2022/06/20 09:42:47;;;;;;;14.93;5.85;;;28.30;94.40;;;;;;5007001;28;20173;-76
2022/06/20 09:45:36;;;;;;;9.70;5.70;;;28.40;93.40;;;;;;5007030;28;20026;-74
2022/06/20 09:48:39;;;;;;;11.82;5.25;;;28.70;93.50;;;;;;5003337;28;20057;-74
2022/06/20 09:51:35;;;;;;;12.02;5.38;;;28.90;92.70;;;;;;5009944;28;20069;-76
2022/06/20 09:54:10;;;;;;;11.07;5.72;;;29.30;92.00;;;;;;5007667;28;20034;-75
2022/06/20 09:56:42;;;;;;;13.48;5.43;;;29.40;91.50;;;;;;5013095;28;20025;-76
2022/06/20 09:59:28;;;;;;;10.68;5.43;;;29.30;90.70;;;;;;5011851;28;20515;-76
2022/06/20 10:02:20;;;;;;;19.67;5.82;;;29.10;90.30;;;;;;4999216;28;20046;-75
2022/06/20 10:05:11;;;;;;;14.27;5.88;;;28.90;90.10;;;;;;5008289;28;20030;-77
2022/06/20 10:07:50;;;;;;;14.95;5.60;;;28.80;90.50;;;;;;5017178;28;20030;-75
2022/06/20 10:10:43;;;;;;;15.17;6.13;;;28.80;90.30;;;;;;5012397;28;20025;-75
2022/06/20 10:13:32;;;;;;;13.40;5.75;;;28.90;90.10;;;;;;5011971;28;20061;-75
2022/06/20 10:16:18;;;;;;;14.02;5.03;;;29.10;89.80;;;;;;5006235;28;20030;-75
2022/06/20 10:19:08;;;;;;;12.88;4.97;;;29.20;87.80;;;;;;5012573;28;20030;-76
2022/06/20 10:22:05;;;;;;;12.90;5.32;;;29.40;88.60;;;;;;5006781;28;20097;-76
2022/06/20 10:24:42;;;;;;;9.40;4.95;;;29.50;86.70;;;;;;5017380;28;20026;-77
2022/06/20 10:27:32;;;;;;;15.38;5.00;;;29.50;87.70;;;;;;5012057;28;20037;-76
2022/06/20 10:30:09;;;;;;;15.98;6.18;;;29.50;87.40;;;;;;5001452;28;20125;-79
2022/06/20 10:32:49;;;;;;;11.95;5.32;;;29.60;87.50;;;;;;5011890;28;20092;-78
2022/06/20 10:35:27;;;;;;;11.90;5.35;;;29.70;86.40;;;;;;5007469;28;20034;-78
2022/06/20 10:38:02;;;;;;;11.63;5.25;;;29.80;85.00;;;;;;5004729;28;20113;-76
2022/06/20 10:40:38;;;;;;;9.27;5.05;;;30.00;84.40;;;;;;5005178;28;20058;-79
2022/06/20 10:43:29;;;;;;;12.73;4.93;;;29.70;83.30;;;;;;5011819;28;20097;-75
2022/06/20 10:46:26;;;;;;;10.77;5.15;;;29.70;84.10;;;;;;4992823;28;20481;-78
2022/06/20 10:48:54;;;;;;;16.33;5.80;;;29.70;82.60;;;;;;4981056;28;20046;-78
2022/06/20 10:51:38;;;;;;;16.63;5.15;;;29.50;83.80;;;;;;5010872;28;20045;-78
2022/06/20 10:54:24;;;;;;;11.63;4.43;;;29.10;84.00;;;;;;5003546;28;20030;-74
2022/06/20 10:57:27;;;;;;;11.32;4.00;;;28.80;84.80;;;;;;5008453;28;20034;-78
2022/06/20 11:00:02;;;;;;;11.05;4.38;;;28.50;84.40;;;;;;5005918;28;20171;-75
2022/06/20 11:03:04;;;;;;;9.90;4.25;;;28.60;84.40;;;;;;5010573;28;20486;-78
2022/06/20 11:05:47;;;;;;;15.45;4.45;;;28.70;83.20;;;;;;4998612;28;20036;-75
2022/06/20 11:08:24;;;;;;;8.20;4.00;;;28.80;81.60;;;;;;5002199;28;20054;-77
2022/06/20 11:11:28;;;;;;;16.48;4.28;;;29.00;81.10;;;;;;5014010;28;20493;-78
2022/06/20 11:14:12;;;;;;;8.40;4.97;;;29.30;80.20;;;;;;4997120;28;20045;-77
2022/06/20 11:16:46;;;;;;;11.30;4.85;;;29.40;80.60;;;;;;5004972;28;20023;-77
2022/06/20 11:19:49;;;;;;;12.57;4.88;;;29.30;80.70;;;;;;5013040;28;20148;-76
2022/06/20 11:22:35;;;;;;;24.63;5.85;;;29.00;81.10;;;;;;5011650;28;20042;-76
2022/06/20 11:25:39;;;;;;;13.35;5.25;;;28.50;82.20;;;;;;5010215;28;20109;-74
2022/06/20 11:29:02;;;;;;;13.77;5.10;;;28.10;82.80;;;;;;4966562;28;20038;-74
2022/06/20 11:31:52;;;;;;;10.13;5.18;;;27.90;84.20;;;;;;4931637;29;20031;-76
2022/06/20 11:34:23;;;;;;;15.55;5.70;;;27.80;85.70;;;;;;5008084;28;20033;-76
2022/06/20 11:37:07;;;;;;;9.05;5.00;;;27.60;85.40;;;;;;5011543;28;20026;-77
2022/06/20 11:39:51;;;;;;;16.10;5.43;;;27.40;86.30;;;;;;5005508;28;20096;-76
2022/06/20 11:42:50;;;;;;;11.48;5.60;;;27.30;86.50;;;;;;5010964;28;20119;-74
2022/06/20 11:45:53;;;;;;;13.52;5.90;;;27.10;87.30;;;;;;5009053;28;20030;-75
2022/06/20 11:49:09;;;;;;;14.05;6.00;;;27.20;87.50;;;;;;5008151;28;20132;-75
2022/06/20 11:51:53;;;;;;;12.43;5.45;;;27.50;87.30;;;;;;4963188;28;20045;-75
2022/06/20 11:54:44;;;;;;;13.88;5.50;;;27.40;87.00;;;;;;5002292;28;20075;-77
2022/06/20 11:57:21;;;;;;;10.05;4.90;;;27.50;87.10;;;;;;5006245;28;20030;-75
2022/06/20 11:59:56;;;;;;;13.32;6.47;;;27.60;87.30;;;;;;5010052;28;20041;-75
2022/06/20 12:03:04;;;;;;;12.50;5.18;;;27.40;86.50;;;;;;5010234;28;20109;-76
2022/06/20 12:05:44;;;;;;;18.10;5.47;;;27.30;87.20;;;;;;4967435;28;20057;-75
2022/06/20 12:08:36;;;;;;;8.70;4.50;;;27.20;87.40;;;;;;5009684;28;20369;-75
2022/06/20 12:11:31;;;;;;;9.65;4.88;;;27.20;88.40;;;;;;5010468;28;20433;-73
2022/06/20 12:14:28;;;;;;;12.77;4.32;;;27.40;87.00;;;;;;4975039;28;20042;-76
2022/06/20 12:17:02;;;;;;;13.32;4.65;;;27.50;86.60;;;;;;4988737;28;20057;-74
2022/06/20 12:25:26;;;;;;;8.10;3.53;;;27.70;84.30;;;;;;5010109;28;20076;-72
2022/06/20 12:27:52;;;;;;;5.18;3.08;;;27.60;82.60;;;;;;5010434;28;20026;-73
2022/06/20 12:30:19;;;;;;;7.47;2.67;;;27.10;83.00;;;;;;5002955;28;20510;-73
2022/06/20 12:32:49;;;;;;;5.78;2.70;;;27.10;83.40;;;;;;4986142;28;20062;-74
2022/06/20 12:35:27;;;;;;;6.15;2.33;;;27.10;83.80;;;;;;4999096;28;20033;-73
2022/06/20 12:38:11;;;;;;;12.23;4.25;;;27.30;84.90;;;;;;5007665;28;20045;-73
2022/06/20 12:40:54;;;;;;;15.48;5.10;;;27.80;86.10;;;;;;4996359;28;20022;-75
2022/06/20 12:43:25;;;;;;;13.38;5.32;;;28.20;86.20;;;;;;5009579;28;20026;-75
2022/06/20 12:46:03;;;;;;;9.70;3.80;;;28.40;86.40;;;;;;5008564;28;20030;-82
2022/06/20 12:49:19;;;;;;;11.85;4.50;;;28.40;84.80;;;;;;5003096;28;20030;-82
2022/06/20 12:52:06;;;;;;;11.23;5.07;;;28.20;87.10;;;;;;4978635;28;20053;-82
2022/06/20 12:54:47;;;;;;;15.95;4.63;;;27.70;85.80;;;;;;5002368;28;20383;-83
2022/06/20 12:57:40;;;;;;;15.10;5.22;;;27.30;86.70;;;;;;5014730;28;20029;-83
2022/06/20 13:00:39;;;;;;;16.25;5.70;;;26.60;88.50;;;;;;5012523;28;20030;-83
2022/06/20 13:03:17;;;;;;;11.98;4.93;;;26.20;90.40;;;;;;4955167;28;20402;-83
2022/06/20 13:05:52;;;;;;;14.68;5.70;;;25.90;91.00;;;;;;5010772;28;20099;-83
2022/06/20 13:08:27;;;;;;;15.93;5.45;;;25.80;90.80;;;;;;5001416;28;20420;-81
2022/06/20 13:11:05;;;;;;;15.50;5.70;;;25.70;91.00;;;;;;5006254;28;20482;-85
2022/06/20 13:13:39;;;;;;;12.98;4.85;;;25.70;91.10;;;;;;5010923;28;20474;-82
2022/06/20 13:16:17;;;;;;;17.70;6.03;;;25.80;91.90;;;;;;4993356;28;20026;-85
2022/06/20 13:19:13;;;;;;;20.25;5.90;;;25.90;91.40;;;;;;5010106;28;20034;-82
2022/06/20 13:21:54;;;;;;;12.13;4.07;;;25.70;91.50;;;;;;4997631;28;20509;-83
2022/06/20 13:24:46;;;;;;;14.00;5.40;;;25.50;92.20;;;;;;5008824;28;20018;-83
2022/06/20 13:27:46;;;;;;;16.88;5.25;;;25.50;92.40;;;;;;4981270;28;20466;-84
2022/06/20 13:30:26;;;;;;;12.52;4.63;;;25.50;92.40;;;;;;5015058;28;20054;-80
2022/06/20 13:33:33;;;;;;;16.73;5.32;;;25.50;92.40;;;;;;5019786;28;20120;-87
2022/06/20 13:36:18;;;;;;;9.85;4.90;;;25.40;92.50;;;;;;4988385;28;20038;-82
2022/06/20 13:39:15;;;;;;;15.20;4.70;;;25.20;93.00;;;;;;4993976;28;20395;-80
2022/06/20 13:42:00;;;;;;;15.38;4.70;;;25.10;93.30;;;;;;4979495;28;20037;-83
2022/06/20 13:44:43;;;;;;;11.73;4.72;;;24.80;93.90;;;;;;5009381;28;20030;-84
2022/06/20 13:47:18;;;;;;;12.32;4.30;;;24.70;94.40;;;;;;5011956;28;20081;-83
2022/06/20 13:50:18;;;;;;;11.85;4.15;;;24.60;94.80;;;;;;5011707;28;20030;-84
2022/06/20 13:52:57;;;;;;;9.07;3.97;;;24.50;95.20;;;;;;5002645;28;20056;-80